sensor_id;sensor_type;location;lat;lon;timestamp;temperature;humidity
64634;DHT22;51043;52.406;9.690;2022-08-24T00:00:32;19.90;70.10
64634;DHT22;51043;52.406;9.690;2022-08-24T00:03:00;19.70;71.20
64634;DHT22;51043;52.406;9.690;2022-08-24T00:05:28;19.70;71.60
64634;DHT22;51043;52.406;9.690;2022-08-24T00:07:55;19.60;71.80
64634;DHT22;51043;52.406;9.690;2022-08-24T00:10:22;19.60;71.40
64634;DHT22;51043;52.406;9.690;2022-08-24T00:12:49;19.60;71.90
64634;DHT22;51043;52.406;9.690;2022-08-24T00:15:16;19.60;71.80
64634;DHT22;51043;52.406;9.690;2022-08-24T00:17:44;19.60;71.90
64634;DHT22;51043;52.406;9.690;2022-08-24T00:20:12;19.60;72.50
64634;DHT22;51043;52.406;9.690;2022-08-24T00:22:39;19.50;72.40
64634;DHT22;51043;52.406;9.690;2022-08-24T00:25:10;19.50;73.00
64634;DHT22;51043;52.406;9.690;2022-08-24T00:27:39;19.50;73.00
64634;DHT22;51043;52.406;9.690;2022-08-24T00:30:10;19.50;73.60
64634;DHT22;51043;52.406;9.690;2022-08-24T00:32:37;19.50;73.60
64634;DHT22;51043;52.406;9.690;2022-08-24T00:35:07;19.50;73.80
64634;DHT22;51043;52.406;9.690;2022-08-24T00:37:35;19.40;74.40
64634;DHT22;51043;52.406;9.690;2022-08-24T00:40:10;19.40;74.70
64634;DHT22;51043;52.406;9.690;2022-08-24T00:42:39;19.40;75.00
64634;DHT22;51043;52.406;9.690;2022-08-24T00:45:10;19.30;75.80
64634;DHT22;51043;52.406;9.690;2022-08-24T00:47:53;19.20;75.80
64634;DHT22;51043;52.406;9.690;2022-08-24T00:50:48;19.20;76.80
64634;DHT22;51043;52.406;9.690;2022-08-24T00:53:27;19.10;76.60
64634;DHT22;51043;52.406;9.690;2022-08-24T00:56:11;19.10;76.90
64634;DHT22;51043;52.406;9.690;2022-08-24T00:58:47;19.20;77.20
64634;DHT22;51043;52.406;9.690;2022-08-24T01:01:16;19.10;78.50
64634;DHT22;51043;52.406;9.690;2022-08-24T01:03:44;19.00;78.50
64634;DHT22;51043;52.406;9.690;2022-08-24T01:06:13;19.00;79.50
64634;DHT22;51043;52.406;9.690;2022-08-24T01:08:41;19.00;79.30
64634;DHT22;51043;52.406;9.690;2022-08-24T01:11:14;18.90;79.50
64634;DHT22;51043;52.406;9.690;2022-08-24T01:13:46;18.90;79.90
64634;DHT22;51043;52.406;9.690;2022-08-24T01:16:15;18.90;81.00
64634;DHT22;51043;52.406;9.690;2022-08-24T01:19:07;18.90;81.50
64634;DHT22;51043;52.406;9.690;2022-08-24T01:24:20;18.80;82.60
64634;DHT22;51043;52.406;9.690;2022-08-24T01:26:49;18.80;83.60
64634;DHT22;51043;52.406;9.690;2022-08-24T01:29:21;18.80;83.50
64634;DHT22;51043;52.406;9.690;2022-08-24T01:31:49;18.70;84.40
64634;DHT22;51043;52.406;9.690;2022-08-24T01:34:16;18.70;84.50
64634;DHT22;51043;52.406;9.690;2022-08-24T01:36:46;18.80;85.30
64634;DHT22;51043;52.406;9.690;2022-08-24T01:41:48;18.70;86.20
64634;DHT22;51043;52.406;9.690;2022-08-24T01:44:17;18.60;87.10
64634;DHT22;51043;52.406;9.690;2022-08-24T01:46:45;18.50;89.40
64634;DHT22;51043;52.406;9.690;2022-08-24T01:49:14;18.40;89.90
64634;DHT22;51043;52.406;9.690;2022-08-24T01:51:42;18.40;90.90
64634;DHT22;51043;52.406;9.690;2022-08-24T01:54:13;18.30;91.30
64634;DHT22;51043;52.406;9.690;2022-08-24T01:56:43;18.20;92.90
64634;DHT22;51043;52.406;9.690;2022-08-24T01:59:10;18.10;92.90
64634;DHT22;51043;52.406;9.690;2022-08-24T02:01:44;18.10;92.90
64634;DHT22;51043;52.406;9.690;2022-08-24T02:04:12;18.00;93.70
64634;DHT22;51043;52.406;9.690;2022-08-24T02:06:39;17.90;94.40
64634;DHT22;51043;52.406;9.690;2022-08-24T02:09:08;18.00;95.20
64634;DHT22;51043;52.406;9.690;2022-08-24T02:11:37;18.00;95.20
64634;DHT22;51043;52.406;9.690;2022-08-24T02:14:08;17.90;95.20
64634;DHT22;51043;52.406;9.690;2022-08-24T02:16:34;18.00;95.70
64634;DHT22;51043;52.406;9.690;2022-08-24T02:19:03;18.10;96.20
64634;DHT22;51043;52.406;9.690;2022-08-24T02:21:30;18.00;96.50
64634;DHT22;51043;52.406;9.690;2022-08-24T02:23:57;18.10;97.30
64634;DHT22;51043;52.406;9.690;2022-08-24T02:26:24;18.00;97.50
64634;DHT22;51043;52.406;9.690;2022-08-24T02:28:52;18.00;98.30
64634;DHT22;51043;52.406;9.690;2022-08-24T02:31:20;17.90;98.30
64634;DHT22;51043;52.406;9.690;2022-08-24T02:33:47;18.00;98.90
64634;DHT22;51043;52.406;9.690;2022-08-24T02:36:14;18.00;99.30
64634;DHT22;51043;52.406;9.690;2022-08-24T02:38:44;18.10;99.10
64634;DHT22;51043;52.406;9.690;2022-08-24T02:41:16;18.10;99.40
64634;DHT22;51043;52.406;9.690;2022-08-24T02:43:44;18.10;99.80
64634;DHT22;51043;52.406;9.690;2022-08-24T02:46:24;18.00;99.80
64634;DHT22;51043;52.406;9.690;2022-08-24T02:48:51;18.00;99.90
64634;DHT22;51043;52.406;9.690;2022-08-24T02:51:21;17.90;99.90
64634;DHT22;51043;52.406;9.690;2022-08-24T02:53:48;17.90;99.90
64634;DHT22;51043;52.406;9.690;2022-08-24T02:56:17;17.80;99.90
64634;DHT22;51043;52.406;9.690;2022-08-24T02:58:46;17.80;99.90
64634;DHT22;51043;52.406;9.690;2022-08-24T03:01:15;17.80;99.90
64634;DHT22;51043;52.406;9.690;2022-08-24T03:03:43;17.70;99.90
64634;DHT22;51043;52.406;9.690;2022-08-24T03:06:16;17.60;99.90
64634;DHT22;51043;52.406;9.690;2022-08-24T03:08:48;17.60;99.90
64634;DHT22;51043;52.406;9.690;2022-08-24T03:11:16;17.50;99.90
64634;DHT22;51043;52.406;9.690;2022-08-24T03:13:44;17.60;99.90
64634;DHT22;51043;52.406;9.690;2022-08-24T03:16:13;17.40;99.90
64634;DHT22;51043;52.406;9.690;2022-08-24T03:18:41;17.30;99.90
64634;DHT22;51043;52.406;9.690;2022-08-24T03:21:20;17.30;99.90
64634;DHT22;51043;52.406;9.690;2022-08-24T03:23:49;17.30;99.90
64634;DHT22;51043;52.406;9.690;2022-08-24T03:26:17;17.20;99.90
64634;DHT22;51043;52.406;9.690;2022-08-24T03:28:44;17.20;99.90
64634;DHT22;51043;52.406;9.690;2022-08-24T03:31:12;17.20;99.90
64634;DHT22;51043;52.406;9.690;2022-08-24T03:33:39;17.10;99.90
64634;DHT22;51043;52.406;9.690;2022-08-24T03:36:06;17.10;99.90
64634;DHT22;51043;52.406;9.690;2022-08-24T03:38:37;17.00;99.90
64634;DHT22;51043;52.406;9.690;2022-08-24T03:41:04;17.00;99.90
64634;DHT22;51043;52.406;9.690;2022-08-24T03:43:31;17.00;99.90
64634;DHT22;51043;52.406;9.690;2022-08-24T03:46:23;17.00;99.90
64634;DHT22;51043;52.406;9.690;2022-08-24T03:48:52;16.90;99.90
64634;DHT22;51043;52.406;9.690;2022-08-24T03:51:24;16.90;99.90
64634;DHT22;51043;52.406;9.690;2022-08-24T03:53:53;16.90;99.90
64634;DHT22;51043;52.406;9.690;2022-08-24T03:56:25;16.90;99.90
64634;DHT22;51043;52.406;9.690;2022-08-24T03:58:54;16.80;99.90
64634;DHT22;51043;52.406;9.690;2022-08-24T04:01:25;16.80;99.90
64634;DHT22;51043;52.406;9.690;2022-08-24T04:03:53;16.80;99.90
64634;DHT22;51043;52.406;9.690;2022-08-24T04:06:25;16.80;99.90
64634;DHT22;51043;52.406;9.690;2022-08-24T04:08:53;16.70;99.90
64634;DHT22;51043;52.406;9.690;2022-08-24T04:11:24;16.70;99.90
64634;DHT22;51043;52.406;9.690;2022-08-24T04:13:54;16.70;99.90
64634;DHT22;51043;52.406;9.690;2022-08-24T04:16:27;16.60;99.90
64634;DHT22;51043;52.406;9.690;2022-08-24T04:19:06;16.60;99.90
64634;DHT22;51043;52.406;9.690;2022-08-24T04:21:34;16.60;99.90
64634;DHT22;51043;52.406;9.690;2022-08-24T04:24:06;16.50;99.90
64634;DHT22;51043;52.406;9.690;2022-08-24T04:26:36;16.50;99.90
64634;DHT22;51043;52.406;9.690;2022-08-24T04:29:06;16.50;99.90
64634;DHT22;51043;52.406;9.690;2022-08-24T04:31:43;16.60;99.90
64634;DHT22;51043;52.406;9.690;2022-08-24T04:34:12;16.60;99.90
64634;DHT22;51043;52.406;9.690;2022-08-24T04:36:41;16.60;99.90
64634;DHT22;51043;52.406;9.690;2022-08-24T04:39:13;16.60;99.90
64634;DHT22;51043;52.406;9.690;2022-08-24T04:41:45;16.60;99.90
64634;DHT22;51043;52.406;9.690;2022-08-24T04:44:14;16.60;99.90
64634;DHT22;51043;52.406;9.690;2022-08-24T04:46:42;16.60;99.90
64634;DHT22;51043;52.406;9.690;2022-08-24T04:49:12;16.60;99.90
64634;DHT22;51043;52.406;9.690;2022-08-24T04:51:39;16.70;99.90
64634;DHT22;51043;52.406;9.690;2022-08-24T04:54:08;16.70;99.90
64634;DHT22;51043;52.406;9.690;2022-08-24T04:56:37;16.80;99.90
64634;DHT22;51043;52.406;9.690;2022-08-24T04:59:05;16.80;99.90
64634;DHT22;51043;52.406;9.690;2022-08-24T05:01:35;16.80;99.90
64634;DHT22;51043;52.406;9.690;2022-08-24T05:04:04;16.90;99.90
64634;DHT22;51043;52.406;9.690;2022-08-24T05:06:32;16.90;99.90
64634;DHT22;51043;52.406;9.690;2022-08-24T05:09:01;17.00;99.90
64634;DHT22;51043;52.406;9.690;2022-08-24T05:11:29;17.10;99.90
64634;DHT22;51043;52.406;9.690;2022-08-24T05:13:58;17.20;99.90
64634;DHT22;51043;52.406;9.690;2022-08-24T05:16:26;17.30;99.90
64634;DHT22;51043;52.406;9.690;2022-08-24T05:18:54;17.40;99.90
64634;DHT22;51043;52.406;9.690;2022-08-24T05:21:24;17.50;99.90
64634;DHT22;51043;52.406;9.690;2022-08-24T05:23:55;17.60;99.90
64634;DHT22;51043;52.406;9.690;2022-08-24T05:26:29;17.70;99.90
64634;DHT22;51043;52.406;9.690;2022-08-24T05:29:00;18.00;99.90
64634;DHT22;51043;52.406;9.690;2022-08-24T05:31:47;18.20;99.90
64634;DHT22;51043;52.406;9.690;2022-08-24T05:34:18;18.30;99.90
64634;DHT22;51043;52.406;9.690;2022-08-24T05:36:45;18.40;99.90
64634;DHT22;51043;52.406;9.690;2022-08-24T05:39:33;18.50;99.90
64634;DHT22;51043;52.406;9.690;2022-08-24T05:42:06;18.70;99.90
64634;DHT22;51043;52.406;9.690;2022-08-24T05:44:37;18.90;99.90
64634;DHT22;51043;52.406;9.690;2022-08-24T05:47:04;19.20;99.90
64634;DHT22;51043;52.406;9.690;2022-08-24T05:49:31;19.30;99.90
64634;DHT22;51043;52.406;9.690;2022-08-24T05:51:58;19.50;99.90
64634;DHT22;51043;52.406;9.690;2022-08-24T05:54:25;19.60;99.90
64634;DHT22;51043;52.406;9.690;2022-08-24T05:56:56;19.80;99.90
64634;DHT22;51043;52.406;9.690;2022-08-24T05:59:34;20.00;99.90
64634;DHT22;51043;52.406;9.690;2022-08-24T06:02:07;20.10;99.90
64634;DHT22;51043;52.406;9.690;2022-08-24T06:04:34;20.20;99.90
64634;DHT22;51043;52.406;9.690;2022-08-24T06:07:05;20.40;99.90
64634;DHT22;51043;52.406;9.690;2022-08-24T06:09:47;20.50;99.90
64634;DHT22;51043;52.406;9.690;2022-08-24T06:12:14;20.60;99.90
64634;DHT22;51043;52.406;9.690;2022-08-24T06:14:53;20.80;99.90
64634;DHT22;51043;52.406;9.690;2022-08-24T06:17:22;21.00;99.90
64634;DHT22;51043;52.406;9.690;2022-08-24T06:19:49;21.20;99.90
64634;DHT22;51043;52.406;9.690;2022-08-24T06:22:16;21.40;99.90
64634;DHT22;51043;52.406;9.690;2022-08-24T06:24:45;21.60;99.90
64634;DHT22;51043;52.406;9.690;2022-08-24T06:27:31;21.80;99.90
64634;DHT22;51043;52.406;9.690;2022-08-24T06:30:01;21.90;99.90
64634;DHT22;51043;52.406;9.690;2022-08-24T06:32:48;22.20;99.90
64634;DHT22;51043;52.406;9.690;2022-08-24T06:35:26;22.40;99.90
64634;DHT22;51043;52.406;9.690;2022-08-24T06:37:54;22.50;99.90
64634;DHT22;51043;52.406;9.690;2022-08-24T06:40:20;22.60;99.90
64634;DHT22;51043;52.406;9.690;2022-08-24T06:42:48;22.80;99.90
64634;DHT22;51043;52.406;9.690;2022-08-24T06:45:20;22.90;99.90
64634;DHT22;51043;52.406;9.690;2022-08-24T06:47:49;23.10;99.90
64634;DHT22;51043;52.406;9.690;2022-08-24T06:50:17;23.20;99.90
64634;DHT22;51043;52.406;9.690;2022-08-24T06:52:48;23.30;99.90
64634;DHT22;51043;52.406;9.690;2022-08-24T06:55:15;23.50;99.90
64634;DHT22;51043;52.406;9.690;2022-08-24T06:57:42;23.60;99.90
64634;DHT22;51043;52.406;9.690;2022-08-24T07:00:11;23.70;99.90
64634;DHT22;51043;52.406;9.690;2022-08-24T07:02:40;23.90;99.90
64634;DHT22;51043;52.406;9.690;2022-08-24T07:05:08;24.10;98.50
64634;DHT22;51043;52.406;9.690;2022-08-24T07:07:54;24.30;98.20
64634;DHT22;51043;52.406;9.690;2022-08-24T07:10:21;24.50;97.80
64634;DHT22;51043;52.406;9.690;2022-08-24T07:12:50;24.60;96.60
64634;DHT22;51043;52.406;9.690;2022-08-24T07:15:17;24.60;96.50
64634;DHT22;51043;52.406;9.690;2022-08-24T07:17:56;24.70;96.60
64634;DHT22;51043;52.406;9.690;2022-08-24T07:20:23;24.80;95.60
64634;DHT22;51043;52.406;9.690;2022-08-24T07:23:12;24.90;96.50
64634;DHT22;51043;52.406;9.690;2022-08-24T07:25:41;25.40;94.80
64634;DHT22;51043;52.406;9.690;2022-08-24T07:28:12;26.20;93.60
64634;DHT22;51043;52.406;9.690;2022-08-24T07:30:41;27.40;90.50
64634;DHT22;51043;52.406;9.690;2022-08-24T07:33:10;28.40;84.60
64634;DHT22;51043;52.406;9.690;2022-08-24T07:35:38;28.80;81.60
64634;DHT22;51043;52.406;9.690;2022-08-24T07:38:07;29.70;76.50
64634;DHT22;51043;52.406;9.690;2022-08-24T07:40:34;30.20;72.90
64634;DHT22;51043;52.406;9.690;2022-08-24T07:43:10;30.60;68.80
64634;DHT22;51043;52.406;9.690;2022-08-24T07:45:39;31.10;69.70
64634;DHT22;51043;52.406;9.690;2022-08-24T07:48:08;31.80;63.10
64634;DHT22;51043;52.406;9.690;2022-08-24T07:50:41;32.50;59.20
64634;DHT22;51043;52.406;9.690;2022-08-24T07:53:08;33.30;56.20
64634;DHT22;51043;52.406;9.690;2022-08-24T07:55:40;33.70;53.00
64634;DHT22;51043;52.406;9.690;2022-08-24T07:58:07;33.90;51.80
64634;DHT22;51043;52.406;9.690;2022-08-24T08:00:34;34.20;49.50
64634;DHT22;51043;52.406;9.690;2022-08-24T08:03:02;33.80;50.40
64634;DHT22;51043;52.406;9.690;2022-08-24T08:05:37;33.90;49.40
64634;DHT22;51043;52.406;9.690;2022-08-24T08:08:05;34.10;48.70
64634;DHT22;51043;52.406;9.690;2022-08-24T08:10:33;34.30;48.20
64634;DHT22;51043;52.406;9.690;2022-08-24T08:13:04;34.80;47.00
64634;DHT22;51043;52.406;9.690;2022-08-24T08:15:31;35.40;45.20
64634;DHT22;51043;52.406;9.690;2022-08-24T08:18:04;35.70;45.10
64634;DHT22;51043;52.406;9.690;2022-08-24T08:20:33;35.90;45.10
64634;DHT22;51043;52.406;9.690;2022-08-24T08:23:03;35.90;42.90
64634;DHT22;51043;52.406;9.690;2022-08-24T08:26:17;35.60;43.80
64634;DHT22;51043;52.406;9.690;2022-08-24T08:29:10;35.90;43.30
64634;DHT22;51043;52.406;9.690;2022-08-24T08:31:40;36.40;41.90
64634;DHT22;51043;52.406;9.690;2022-08-24T08:34:08;37.10;41.20
64634;DHT22;51043;52.406;9.690;2022-08-24T08:36:37;37.50;39.30
64634;DHT22;51043;52.406;9.690;2022-08-24T08:39:11;37.50;38.70
64634;DHT22;51043;52.406;9.690;2022-08-24T08:50:24;37.70;38.20
64634;DHT22;51043;52.406;9.690;2022-08-24T08:53:15;38.00;36.50
64634;DHT22;51043;52.406;9.690;2022-08-24T08:56:23;37.30;36.80
64634;DHT22;51043;52.406;9.690;2022-08-24T09:22:18;37.40;35.50
64634;DHT22;51043;52.406;9.690;2022-08-24T09:28:00;38.30;34.10
64634;DHT22;51043;52.406;9.690;2022-08-24T09:31:01;38.50;34.10
64634;DHT22;51043;52.406;9.690;2022-08-24T09:33:39;39.10;32.90
64634;DHT22;51043;52.406;9.690;2022-08-24T09:36:24;39.50;31.80
64634;DHT22;51043;52.406;9.690;2022-08-24T09:44:58;39.40;31.10
64634;DHT22;51043;52.406;9.690;2022-08-24T09:48:19;39.40;31.20
64634;DHT22;51043;52.406;9.690;2022-08-24T09:51:19;39.60;30.30
64634;DHT22;51043;52.406;9.690;2022-08-24T09:56:51;39.50;30.40
64634;DHT22;51043;52.406;9.690;2022-08-24T10:07:46;37.70;32.30
64634;DHT22;51043;52.406;9.690;2022-08-24T10:13:02;36.30;36.30
64634;DHT22;51043;52.406;9.690;2022-08-24T10:16:01;36.00;36.60
64634;DHT22;51043;52.406;9.690;2022-08-24T10:21:23;36.30;35.20
64634;DHT22;51043;52.406;9.690;2022-08-24T10:29:59;37.10;33.30
64634;DHT22;51043;52.406;9.690;2022-08-24T10:32:39;37.60;33.40
64634;DHT22;51043;52.406;9.690;2022-08-24T10:35:14;38.70;31.70
64634;DHT22;51043;52.406;9.690;2022-08-24T10:41:21;40.20;28.50
64634;DHT22;51043;52.406;9.690;2022-08-24T10:43:57;40.40;27.70
64634;DHT22;51043;52.406;9.690;2022-08-24T10:46:49;39.70;28.40
64634;DHT22;51043;52.406;9.690;2022-08-24T10:54:48;40.90;27.70
64634;DHT22;51043;52.406;9.690;2022-08-24T11:00:04;42.00;26.60
64634;DHT22;51043;52.406;9.690;2022-08-24T11:02:35;42.70;25.80
64634;DHT22;51043;52.406;9.690;2022-08-24T11:05:06;42.90;24.90
64634;DHT22;51043;52.406;9.690;2022-08-24T11:07:35;43.20;24.30
64634;DHT22;51043;52.406;9.690;2022-08-24T11:10:27;43.10;24.20
64634;DHT22;51043;52.406;9.690;2022-08-24T11:12:55;42.90;24.50
64634;DHT22;51043;52.406;9.690;2022-08-24T11:15:46;42.40;23.90
64634;DHT22;51043;52.406;9.690;2022-08-24T11:18:15;41.80;24.70
64634;DHT22;51043;52.406;9.690;2022-08-24T11:20:45;41.60;25.50
64634;DHT22;51043;52.406;9.690;2022-08-24T11:23:33;41.30;26.20
64634;DHT22;51043;52.406;9.690;2022-08-24T11:26:09;40.80;26.80
64634;DHT22;51043;52.406;9.690;2022-08-24T11:28:53;41.50;26.60
64634;DHT22;51043;52.406;9.690;2022-08-24T11:31:31;42.40;25.70
64634;DHT22;51043;52.406;9.690;2022-08-24T11:34:04;42.80;25.60
64634;DHT22;51043;52.406;9.690;2022-08-24T11:36:36;42.80;25.10
64634;DHT22;51043;52.406;9.690;2022-08-24T11:39:19;42.70;24.80
64634;DHT22;51043;52.406;9.690;2022-08-24T11:42:10;41.90;25.20
64634;DHT22;51043;52.406;9.690;2022-08-24T11:48:00;42.20;25.10
64634;DHT22;51043;52.406;9.690;2022-08-24T11:50:51;42.50;25.50
64634;DHT22;51043;52.406;9.690;2022-08-24T11:53:53;43.00;25.30
64634;DHT22;51043;52.406;9.690;2022-08-24T11:59:00;43.60;24.50
64634;DHT22;51043;52.406;9.690;2022-08-24T12:01:57;43.40;25.10
64634;DHT22;51043;52.406;9.690;2022-08-24T12:07:59;43.60;23.90
64634;DHT22;51043;52.406;9.690;2022-08-24T12:13:44;43.30;24.00
64634;DHT22;51043;52.406;9.690;2022-08-24T12:19:35;41.80;26.00
64634;DHT22;51043;52.406;9.690;2022-08-24T12:22:06;41.40;26.50
64634;DHT22;51043;52.406;9.690;2022-08-24T12:24:45;41.90;27.90
64634;DHT22;51043;52.406;9.690;2022-08-24T12:27:51;42.00;27.20
64634;DHT22;51043;52.406;9.690;2022-08-24T12:30:14;42.00;24.80
64634;DHT22;51043;52.406;9.690;2022-08-24T12:35:41;42.10;25.00
64634;DHT22;51043;52.406;9.690;2022-08-24T12:38:15;42.20;27.70
64634;DHT22;51043;52.406;9.690;2022-08-24T12:43:37;42.50;26.60
64634;DHT22;51043;52.406;9.690;2022-08-24T12:46:05;42.70;26.30
64634;DHT22;51043;52.406;9.690;2022-08-24T12:48:40;42.20;24.80
64634;DHT22;51043;52.406;9.690;2022-08-24T12:56:50;42.00;25.90
64634;DHT22;51043;52.406;9.690;2022-08-24T13:04:34;40.80;25.70
64634;DHT22;51043;52.406;9.690;2022-08-24T13:07:05;41.00;26.30
64634;DHT22;51043;52.406;9.690;2022-08-24T13:09:36;41.80;25.10
64634;DHT22;51043;52.406;9.690;2022-08-24T13:17:55;42.30;25.30
64634;DHT22;51043;52.406;9.690;2022-08-24T13:28:35;42.10;24.70
64634;DHT22;51043;52.406;9.690;2022-08-24T13:31:14;40.90;25.60
64634;DHT22;51043;52.406;9.690;2022-08-24T13:39:22;41.00;25.30
64634;DHT22;51043;52.406;9.690;2022-08-24T13:50:37;41.30;25.50
64634;DHT22;51043;52.406;9.690;2022-08-24T13:56:28;41.40;24.70
64634;DHT22;51043;52.406;9.690;2022-08-24T14:06:55;42.20;24.10
64634;DHT22;51043;52.406;9.690;2022-08-24T14:13:05;42.10;24.30
64634;DHT22;51043;52.406;9.690;2022-08-24T14:15:22;41.90;24.20
64634;DHT22;51043;52.406;9.690;2022-08-24T14:23:48;41.40;25.20
64634;DHT22;51043;52.406;9.690;2022-08-24T14:34:48;40.00;25.90
64634;DHT22;51043;52.406;9.690;2022-08-24T14:37:22;39.00;27.10
64634;DHT22;51043;52.406;9.690;2022-08-24T14:40:00;37.90;28.40
64634;DHT22;51043;52.406;9.690;2022-08-24T14:42:46;36.80;28.80
64634;DHT22;51043;52.406;9.690;2022-08-24T14:48:35;34.40;32.00
64634;DHT22;51043;52.406;9.690;2022-08-24T15:00:07;32.00;35.30
64634;DHT22;51043;52.406;9.690;2022-08-24T15:11:46;30.90;38.00
64634;DHT22;51043;52.406;9.690;2022-08-24T15:16:50;30.70;38.60
64634;DHT22;51043;52.406;9.690;2022-08-24T15:22:57;30.40;38.30
64634;DHT22;51043;52.406;9.690;2022-08-24T15:25:40;30.30;38.80
64634;DHT22;51043;52.406;9.690;2022-08-24T15:28:14;30.20;39.00
64634;DHT22;51043;52.406;9.690;2022-08-24T15:30:58;30.20;38.70
64634;DHT22;51043;52.406;9.690;2022-08-24T15:33:28;30.10;39.20
64634;DHT22;51043;52.406;9.690;2022-08-24T15:36:15;30.10;39.10
64634;DHT22;51043;52.406;9.690;2022-08-24T15:38:46;30.10;39.20
64634;DHT22;51043;52.406;9.690;2022-08-24T15:41:32;30.00;39.20
64634;DHT22;51043;52.406;9.690;2022-08-24T15:44:05;29.90;40.00
64634;DHT22;51043;52.406;9.690;2022-08-24T15:46:48;29.80;40.60
64634;DHT22;51043;52.406;9.690;2022-08-24T15:52:42;29.70;40.40
64634;DHT22;51043;52.406;9.690;2022-08-24T16:00:49;29.60;40.60
64634;DHT22;51043;52.406;9.690;2022-08-24T16:03:54;29.70;40.70
64634;DHT22;51043;52.406;9.690;2022-08-24T16:12:02;29.70;40.60
64634;DHT22;51043;52.406;9.690;2022-08-24T16:14:39;29.70;40.80
64634;DHT22;51043;52.406;9.690;2022-08-24T16:17:34;29.60;40.60
64634;DHT22;51043;52.406;9.690;2022-08-24T16:20:11;29.50;40.70
64634;DHT22;51043;52.406;9.690;2022-08-24T16:22:50;29.50;41.10
64634;DHT22;51043;52.406;9.690;2022-08-24T16:28:09;29.50;40.40
64634;DHT22;51043;52.406;9.690;2022-08-24T16:30:58;29.40;40.70
64634;DHT22;51043;52.406;9.690;2022-08-24T16:33:36;29.40;40.30
64634;DHT22;51043;52.406;9.690;2022-08-24T16:36:08;29.50;40.10
64634;DHT22;51043;52.406;9.690;2022-08-24T16:38:38;29.40;39.90
64634;DHT22;51043;52.406;9.690;2022-08-24T16:41:10;29.40;40.00
64634;DHT22;51043;52.406;9.690;2022-08-24T16:43:39;29.40;39.90
64634;DHT22;51043;52.406;9.690;2022-08-24T16:46:12;29.30;40.20
64634;DHT22;51043;52.406;9.690;2022-08-24T16:48:45;29.30;40.30
64634;DHT22;51043;52.406;9.690;2022-08-24T16:51:12;29.30;40.40
64634;DHT22;51043;52.406;9.690;2022-08-24T16:53:39;29.30;40.30
64634;DHT22;51043;52.406;9.690;2022-08-24T16:56:06;29.20;39.80
64634;DHT22;51043;52.406;9.690;2022-08-24T16:58:35;29.30;39.90
64634;DHT22;51043;52.406;9.690;2022-08-24T17:01:03;29.40;39.60
64634;DHT22;51043;52.406;9.690;2022-08-24T17:03:30;29.90;39.00
64634;DHT22;51043;52.406;9.690;2022-08-24T17:05:58;30.60;37.80
64634;DHT22;51043;52.406;9.690;2022-08-24T17:08:26;31.30;36.80
64634;DHT22;51043;52.406;9.690;2022-08-24T17:11:09;31.40;36.40
64634;DHT22;51043;52.406;9.690;2022-08-24T17:13:44;31.60;36.20
64634;DHT22;51043;52.406;9.690;2022-08-24T17:16:15;32.00;36.10
64634;DHT22;51043;52.406;9.690;2022-08-24T17:18:47;32.30;35.10
64634;DHT22;51043;52.406;9.690;2022-08-24T17:21:17;32.60;34.90
64634;DHT22;51043;52.406;9.690;2022-08-24T17:23:45;32.10;35.20
64634;DHT22;51043;52.406;9.690;2022-08-24T17:26:13;31.30;37.40
64634;DHT22;51043;52.406;9.690;2022-08-24T17:28:43;30.50;38.40
64634;DHT22;51043;52.406;9.690;2022-08-24T17:31:20;29.60;39.30
64634;DHT22;51043;52.406;9.690;2022-08-24T17:33:58;29.30;40.00
64634;DHT22;51043;52.406;9.690;2022-08-24T17:36:27;29.10;41.30
64634;DHT22;51043;52.406;9.690;2022-08-24T17:39:05;28.70;41.10
64634;DHT22;51043;52.406;9.690;2022-08-24T17:41:36;28.40;41.90
64634;DHT22;51043;52.406;9.690;2022-08-24T17:44:05;28.30;42.50
64634;DHT22;51043;52.406;9.690;2022-08-24T17:46:34;28.00;42.80
64634;DHT22;51043;52.406;9.690;2022-08-24T17:49:09;28.00;42.90
64634;DHT22;51043;52.406;9.690;2022-08-24T17:51:38;27.90;43.50
64634;DHT22;51043;52.406;9.690;2022-08-24T17:54:06;27.70;43.50
64634;DHT22;51043;52.406;9.690;2022-08-24T17:56:34;27.60;43.60
64634;DHT22;51043;52.406;9.690;2022-08-24T17:59:10;27.50;44.40
64634;DHT22;51043;52.406;9.690;2022-08-24T18:02:08;27.30;44.60
64634;DHT22;51043;52.406;9.690;2022-08-24T18:04:39;27.30;45.20
64634;DHT22;51043;52.406;9.690;2022-08-24T18:07:11;27.00;45.40
64634;DHT22;51043;52.406;9.690;2022-08-24T18:09:49;26.90;46.20
64634;DHT22;51043;52.406;9.690;2022-08-24T18:12:20;26.70;46.50
64634;DHT22;51043;52.406;9.690;2022-08-24T18:14:48;26.60;46.60
64634;DHT22;51043;52.406;9.690;2022-08-24T18:17:22;26.50;47.30
64634;DHT22;51043;52.406;9.690;2022-08-24T18:19:53;26.50;47.60
64634;DHT22;51043;52.406;9.690;2022-08-24T18:22:20;26.40;47.60
64634;DHT22;51043;52.406;9.690;2022-08-24T18:24:50;26.30;49.20
64634;DHT22;51043;52.406;9.690;2022-08-24T18:27:22;26.10;48.60
64634;DHT22;51043;52.406;9.690;2022-08-24T18:29:56;26.00;48.60
64634;DHT22;51043;52.406;9.690;2022-08-24T18:32:26;25.90;49.60
64634;DHT22;51043;52.406;9.690;2022-08-24T18:34:53;25.80;50.00
64634;DHT22;51043;52.406;9.690;2022-08-24T18:37:20;25.80;49.60
64634;DHT22;51043;52.406;9.690;2022-08-24T18:39:48;25.70;50.00
64634;DHT22;51043;52.406;9.690;2022-08-24T18:42:16;25.60;50.60
64634;DHT22;51043;52.406;9.690;2022-08-24T18:44:43;25.50;51.40
64634;DHT22;51043;52.406;9.690;2022-08-24T18:47:11;25.40;51.20
64634;DHT22;51043;52.406;9.690;2022-08-24T18:49:38;25.30;51.80
64634;DHT22;51043;52.406;9.690;2022-08-24T18:52:06;25.20;51.70
64634;DHT22;51043;52.406;9.690;2022-08-24T18:54:37;25.20;51.90
64634;DHT22;51043;52.406;9.690;2022-08-24T18:57:05;25.10;53.50
64634;DHT22;51043;52.406;9.690;2022-08-24T18:59:33;25.00;53.00
64634;DHT22;51043;52.406;9.690;2022-08-24T19:02:07;24.90;53.60
64634;DHT22;51043;52.406;9.690;2022-08-24T19:05:18;24.90;53.60
64634;DHT22;51043;52.406;9.690;2022-08-24T19:07:49;24.80;53.30
64634;DHT22;51043;52.406;9.690;2022-08-24T19:10:23;24.70;53.30
64634;DHT22;51043;52.406;9.690;2022-08-24T19:13:02;24.80;53.00
64634;DHT22;51043;52.406;9.690;2022-08-24T19:15:31;24.70;53.10
64634;DHT22;51043;52.406;9.690;2022-08-24T19:17:58;24.60;53.30
64634;DHT22;51043;52.406;9.690;2022-08-24T19:20:26;24.50;53.00
64634;DHT22;51043;52.406;9.690;2022-08-24T19:22:53;24.60;53.60
64634;DHT22;51043;52.406;9.690;2022-08-24T19:25:22;24.40;53.20
64634;DHT22;51043;52.406;9.690;2022-08-24T19:27:51;24.50;53.40
64634;DHT22;51043;52.406;9.690;2022-08-24T19:30:20;24.30;54.20
64634;DHT22;51043;52.406;9.690;2022-08-24T19:32:48;24.30;53.60
64634;DHT22;51043;52.406;9.690;2022-08-24T19:35:15;24.30;54.10
64634;DHT22;51043;52.406;9.690;2022-08-24T19:37:43;24.30;54.30
64634;DHT22;51043;52.406;9.690;2022-08-24T19:40:10;24.20;55.30